createdAt,value
2016-11-21T00:00:50.355Z,9.9
2016-11-21T00:01:59.623Z,9.85
2016-11-21T00:03:08.897Z,10.05
2016-11-21T00:04:17.529Z,10.01
2016-11-21T00:05:26.128Z,10.03
2016-11-21T00:06:35.872Z,10.01
2016-11-21T00:07:44.805Z,10.02
2016-11-21T00:08:53.757Z,10.05
2016-11-21T00:10:02.388Z,9.96
2016-11-21T00:11:11.347Z,9.98
2016-11-21T00:12:20.007Z,9.94
2016-11-21T00:13:29.287Z,9.99
2016-11-21T00:14:38.228Z,10.12
2016-11-21T00:15:47.173Z,10.05
2016-11-21T00:16:56.131Z,10.09
2016-11-21T00:18:05.703Z,10.2
2016-11-21T00:19:14.961Z,10.38
2016-11-21T00:20:24.209Z,10.17
2016-11-21T00:21:33.790Z,10.12
2016-11-21T00:22:43.087Z,10.35
2016-11-21T00:23:52.703Z,10.36
2016-11-21T00:25:01.628Z,10.18
2016-11-21T00:26:10.886Z,10.42
2016-11-21T00:27:19.503Z,10.38
2016-11-21T00:28:28.767Z,10.14
2016-11-21T00:29:37.829Z,10.06
2016-11-21T00:30:47.409Z,10.1
2016-11-21T00:31:56.027Z,10.17
2016-11-21T00:33:05.303Z,10.14
2016-11-21T00:34:14.223Z,10.31
2016-11-21T00:35:23.608Z,10.26
2016-11-21T00:36:32.206Z,10.17
2016-11-21T00:37:41.468Z,10.14
2016-11-21T00:38:50.451Z,10.05
2016-11-21T00:39:59.388Z,10.18
2016-11-21T00:41:08.045Z,10.17
2016-11-21T00:42:16.673Z,10.09
2016-11-21T00:43:25.957Z,10.39
2016-11-21T00:44:34.885Z,10.43
2016-11-21T00:45:43.826Z,10.27
2016-11-21T00:46:53.440Z,10.09
2016-11-21T00:48:02.704Z,10.02
2016-11-21T00:49:11.647Z,10.21
2016-11-21T00:50:20.910Z,9.96
2016-11-21T00:51:29.507Z,10.01
2016-11-21T00:52:38.915Z,10.14
2016-11-21T00:53:47.856Z,10.1
2016-11-21T00:54:56.800Z,10.12
2016-11-21T00:56:05.731Z,10.24
2016-11-21T00:57:14.347Z,10.18
2016-11-21T00:58:23.947Z,10.39
2016-11-21T00:59:32.879Z,10.08
2016-11-21T01:00:41.502Z,9.96
2016-11-21T01:01:50.767Z,10.18
2016-11-21T01:03:00.009Z,10.09
2016-11-21T01:04:08.994Z,10.02
2016-11-21T01:05:17.615Z,10.12
2016-11-21T01:06:26.248Z,10.16
2016-11-21T01:07:35.505Z,10.2
2016-11-21T01:08:44.453Z,10.09
2016-11-21T01:09:53.438Z,10.05
2016-11-21T01:11:02.072Z,10.09
2016-11-21T01:12:11.343Z,9.99
2016-11-21T01:13:20.279Z,9.83
2016-11-21T01:14:29.225Z,9.83
2016-11-21T01:15:37.891Z,10.17
2016-11-21T01:16:46.827Z,10.05
2016-11-21T01:17:55.446Z,9.93
2016-11-21T01:19:04.747Z,10.02
2016-11-21T01:20:14.003Z,10.01
2016-11-21T01:21:22.987Z,9.96
2016-11-21T01:22:31.605Z,10.17
2016-11-21T01:23:40.552Z,10.16
2016-11-21T01:24:49.500Z,9.99
2016-11-21T01:25:58.780Z,9.84
2016-11-21T01:27:07.432Z,9.99
2016-11-21T01:28:16.055Z,10.03
2016-11-21T01:29:24.669Z,10.05
2016-11-21T01:30:33.614Z,9.96
2016-11-21T01:31:42.545Z,10.18
2016-11-21T01:32:52.488Z,10.26
2016-11-21T01:34:01.436Z,10.49
2016-11-21T01:35:10.714Z,10.49
2016-11-21T01:36:19.321Z,10.49
2016-11-21T01:37:28.273Z,10.43
2016-11-21T01:38:36.940Z,10.62
2016-11-21T01:39:46.203Z,10.57
2016-11-21T01:40:55.159Z,10.34
2016-11-21T01:42:04.115Z,10.09
2016-11-21T01:43:13.057Z,9.96
2016-11-21T01:44:22.074Z,9.88
2016-11-21T01:45:31.015Z,10.09
2016-11-21T01:46:39.951Z,10.1
2016-11-21T01:47:49.532Z,9.9
2016-11-21T01:48:58.467Z,10.09
2016-11-21T01:50:07.447Z,9.99
2016-11-21T01:51:16.387Z,9.99
2016-11-21T01:52:25.309Z,9.99
2016-11-21T01:53:33.948Z,10.03
2016-11-21T01:54:43.219Z,9.83
2016-11-21T01:55:52.276Z,9.99
2016-11-21T01:57:01.211Z,10.16
2016-11-21T01:58:10.145Z,9.94
2016-11-21T01:59:19.395Z,9.94
2016-11-21T02:00:28.371Z,9.9
2016-11-21T02:01:37.334Z,9.98
2016-11-21T02:02:45.952Z,9.99
2016-11-21T02:03:54.579Z,9.96
2016-11-21T02:05:03.200Z,9.88
2016-11-21T02:06:11.833Z,9.84
2016-11-21T02:07:21.150Z,9.67
2016-11-21T02:08:29.767Z,9.67
2016-11-21T02:09:38.376Z,10.03
2016-11-21T02:10:47.006Z,10.05
2016-11-21T02:11:56.918Z,10.17
2016-11-21T02:13:05.587Z,10.39
2016-11-21T02:14:14.866Z,10.35
2016-11-21T02:15:23.488Z,10.34
2016-11-21T02:16:32.747Z,10.26
2016-11-21T02:17:41.378Z,10.18
2016-11-21T02:18:50.442Z,9.84
2016-11-21T02:19:59.380Z,9.91
2016-11-21T02:21:08.962Z,9.98
2016-11-21T02:22:17.575Z,9.88
2016-11-21T02:23:26.218Z,10.12
2016-11-21T02:24:35.500Z,10.16
2016-11-21T02:25:50.388Z,10.38
2016-11-21T02:26:59.323Z,10.27
2016-11-21T02:28:08.266Z,10.17
2016-11-21T02:29:17.189Z,10.17
2016-11-21T02:30:26.158Z,10.34
2016-11-21T02:31:35.096Z,10.31
2016-11-21T02:32:44.052Z,10.52
2016-11-21T02:33:53.302Z,10.57
2016-11-21T02:35:02.233Z,10.35
2016-11-21T02:36:11.300Z,9.96
2016-11-21T02:37:20.544Z,9.9
2016-11-21T02:38:29.488Z,9.99
2016-11-21T02:39:38.440Z,10.17
2016-11-21T02:40:47.049Z,9.75
2016-11-21T02:41:56.358Z,9.81
2016-11-21T02:43:05.300Z,9.69
2016-11-21T02:44:14.587Z,9.48
2016-11-21T02:45:23.566Z,9.59
2016-11-21T02:46:32.834Z,9.57
2016-11-21T02:47:42.131Z,9.22
2016-11-21T02:48:51.435Z,9.6
2016-11-21T02:50:00.069Z,9.63
2016-11-21T02:51:09.309Z,9.87
2016-11-21T02:52:18.230Z,9.84
2016-11-21T02:53:26.886Z,9.81
2016-11-21T02:54:35.805Z,9.83
2016-11-21T02:55:44.408Z,9.81
2016-11-21T02:56:53.007Z,9.57
2016-11-21T02:58:01.938Z,9.7
2016-11-21T02:59:10.588Z,9.9
2016-11-21T03:00:19.826Z,10.03
2016-11-21T03:01:29.074Z,9.8
2016-11-21T03:02:37.993Z,9.98
2016-11-21T03:03:47.572Z,9.87
2016-11-21T03:04:56.845Z,9.81
2016-11-21T03:06:06.087Z,9.88
2016-11-21T03:07:15.008Z,9.96
2016-11-21T03:08:23.934Z,9.85
2016-11-21T03:09:33.501Z,9.44
2016-11-21T03:10:42.153Z,9.59
2016-11-21T03:11:50.752Z,9.57
2016-11-21T03:12:59.366Z,9.45
2016-11-21T03:14:08.289Z,9.63
2016-11-21T03:15:17.212Z,9.69
2016-11-21T03:16:26.269Z,9.66
2016-11-21T03:17:34.881Z,9.99
2016-11-21T03:18:43.807Z,9.44
2016-11-21T03:19:52.730Z,9.52
2016-11-21T03:21:01.653Z,9.33
2016-11-21T03:22:10.924Z,9.4
2016-11-21T03:23:19.520Z,9.47
2016-11-21T03:24:28.125Z,9.45
2016-11-21T03:25:37.043Z,9.59
2016-11-21T03:26:45.639Z,9.63
2016-11-21T03:27:54.909Z,9.62
2016-11-21T03:29:04.163Z,9.55
2016-11-21T03:30:12.771Z,9.54
2016-11-21T03:31:21.689Z,9.54
2016-11-21T03:32:30.933Z,9.63
2016-11-21T03:33:39.985Z,9.6
2016-11-21T03:34:48.581Z,9.33
2016-11-21T03:35:57.501Z,9.34
2016-11-21T03:37:06.100Z,9.3
2016-11-21T03:38:14.705Z,9.3
2016-11-21T03:39:24.044Z,9.54
2016-11-21T03:40:32.962Z,9.24
2016-11-21T03:41:41.884Z,9.18
2016-11-21T03:42:50.810Z,9.03
2016-11-21T03:43:59.732Z,8.99
2016-11-21T03:45:08.755Z,9.12
2016-11-21T03:46:17.681Z,8.95
2016-11-21T03:47:26.603Z,9.14
2016-11-21T03:48:35.204Z,9.33
2016-11-21T03:49:43.817Z,9.66
2016-11-21T03:50:52.516Z,9.88
2016-11-21T03:52:01.120Z,9.91
2016-11-21T03:53:10.358Z,9.77
2016-11-21T03:54:19.291Z,9.48
2016-11-21T03:55:28.547Z,9.67
2016-11-21T03:56:37.569Z,9.57
2016-11-21T03:57:46.815Z,9.59
2016-11-21T03:58:56.376Z,9.66
2016-11-21T04:00:05.939Z,9.67
2016-11-21T04:01:14.875Z,9.62
2016-11-21T04:02:23.572Z,9.6
2016-11-21T04:03:32.528Z,9.7
2016-11-21T04:04:41.768Z,9.88
2016-11-21T04:05:50.366Z,9.81
2016-11-21T04:06:59.314Z,9.69
2016-11-21T04:08:08.581Z,9.54
2016-11-21T04:09:17.825Z,9.81
2016-11-21T04:10:26.427Z,9.81
2016-11-21T04:11:35.352Z,9.66
2016-11-21T04:12:44.276Z,9.52
2016-11-21T04:13:52.874Z,9.62
2016-11-21T04:15:01.476Z,9.85
2016-11-21T04:16:10.397Z,9.94
2016-11-21T04:17:19.318Z,9.65
2016-11-21T04:18:28.562Z,9.91
2016-11-21T04:19:37.213Z,9.75
2016-11-21T04:20:45.813Z,9.52
2016-11-21T04:21:55.067Z,9.54
2016-11-21T04:23:03.669Z,9.44
2016-11-21T04:24:12.594Z,9.19
2016-11-21T04:25:21.584Z,9.32
2016-11-21T04:26:30.180Z,9.16
2016-11-21T04:27:39.132Z,9.41
2016-11-21T04:28:48.058Z,9.19
2016-11-21T04:29:56.654Z,9.15
2016-11-21T04:31:05.607Z,9.16
2016-11-21T04:32:14.528Z,9.32
2016-11-21T04:33:23.130Z,9.27
2016-11-21T04:34:32.369Z,9.42
2016-11-21T04:35:40.965Z,9.55
2016-11-21T04:36:50.312Z,9.55
2016-11-21T04:37:59.232Z,9.7
2016-11-21T04:39:08.158Z,9.81
2016-11-21T04:40:16.755Z,9.6
2016-11-21T04:41:25.677Z,9.6
2016-11-21T04:42:35.649Z,9.52
2016-11-21T04:43:44.892Z,9.47
2016-11-21T04:44:53.813Z,9.47
2016-11-21T04:46:02.414Z,9.54
2016-11-21T04:47:11.335Z,9.57
2016-11-21T04:48:20.284Z,9.4
2016-11-21T04:49:29.849Z,9.59
2016-11-21T04:50:39.089Z,9.69
2016-11-21T04:51:47.700Z,9.69
2016-11-21T04:52:56.948Z,9.7
2016-11-21T04:54:06.221Z,9.51
2016-11-21T04:55:15.145Z,9.7
2016-11-21T04:56:24.429Z,9.6
2016-11-21T04:57:33.998Z,9.67
2016-11-21T04:58:42.920Z,9.26
2016-11-21T04:59:52.189Z,9.34
2016-11-21T05:01:00.788Z,9.44
2016-11-21T05:02:09.714Z,9.3
2016-11-21T05:03:18.319Z,9.26
2016-11-21T05:04:27.241Z,9.24
2016-11-21T05:05:36.191Z,9.16
2016-11-21T05:06:45.433Z,9.32
2016-11-21T05:07:54.359Z,9.42
2016-11-21T05:09:03.283Z,9.5
2016-11-21T05:10:12.203Z,9.3
2016-11-21T05:11:21.572Z,9.54
2016-11-21T05:12:30.212Z,9.47
2016-11-21T05:13:39.135Z,9.6
2016-11-21T05:14:47.733Z,9.55
2016-11-21T05:15:56.333Z,9.65
2016-11-21T05:17:05.705Z,9.59
2016-11-21T05:18:14.953Z,9.81
2016-11-21T05:19:23.877Z,9.96
2016-11-21T05:20:32.478Z,9.87
2016-11-21T05:21:41.723Z,9.7
2016-11-21T05:22:50.773Z,9.57
2016-11-21T05:24:00.016Z,9.65
2016-11-21T05:25:08.615Z,9.93
2016-11-21T05:26:17.533Z,9.91
2016-11-21T05:27:26.129Z,9.91
2016-11-21T05:28:35.104Z,9.94
2016-11-21T05:29:43.705Z,9.99
2016-11-21T05:30:52.946Z,9.93
2016-11-21T05:32:01.869Z,9.85
2016-11-21T05:33:10.468Z,9.67
2016-11-21T05:34:20.058Z,9.48
2016-11-21T05:35:28.655Z,9.63
2016-11-21T05:36:38.225Z,9.6
2016-11-21T05:37:47.496Z,9.66
2016-11-21T05:38:56.735Z,9.63
2016-11-21T05:40:06.009Z,9.42
2016-11-21T05:41:15.256Z,9.5
2016-11-21T05:42:23.855Z,9.62
2016-11-21T05:43:32.458Z,9.42
2016-11-21T05:44:41.059Z,9.62
2016-11-21T05:45:50.724Z,9.54
2016-11-21T05:47:00.293Z,9.42
2016-11-21T05:48:08.923Z,9.29
2016-11-21T05:49:17.848Z,9.29
2016-11-21T05:50:27.442Z,9.23
2016-11-21T05:51:36.088Z,9.32
2016-11-21T05:52:45.337Z,9.3
2016-11-21T05:53:53.934Z,9.44
2016-11-21T05:55:02.528Z,9.32
2016-11-21T05:56:11.772Z,9.44
2016-11-21T05:57:20.746Z,9.32
2016-11-21T05:58:29.685Z,9.48
2016-11-21T05:59:38.930Z,9.52
2016-11-21T06:00:47.531Z,9.42
2016-11-21T06:01:56.459Z,9.33
2016-11-21T06:03:05.753Z,9.33
2016-11-21T06:04:15.008Z,9.32
2016-11-21T06:05:23.610Z,9.34
2016-11-21T06:06:32.539Z,9.23
2016-11-21T06:07:41.135Z,9.3
2016-11-21T06:08:50.105Z,9.32
2016-11-21T06:09:59.343Z,9.34
2016-11-21T06:11:08.591Z,9.36
2016-11-21T06:12:17.189Z,9.52
2016-11-21T06:13:26.751Z,9.48
2016-11-21T06:14:36.662Z,9.41
2016-11-21T06:15:45.585Z,9.47
2016-11-21T06:16:54.184Z,9.81
2016-11-21T06:18:03.104Z,9.7
2016-11-21T06:19:11.700Z,9.55
2016-11-21T06:20:21.041Z,9.73
2016-11-21T06:21:29.648Z,9.85
2016-11-21T06:22:38.571Z,9.83
2016-11-21T06:23:47.168Z,9.83
2016-11-21T06:24:55.767Z,9.88
2016-11-21T06:26:05.015Z,10.14
2016-11-21T06:27:13.941Z,10.09
2016-11-21T06:28:22.868Z,10.35
2016-11-21T06:29:31.793Z,10.39
2016-11-21T06:30:40.718Z,10.52
2016-11-21T06:31:49.376Z,10.2
2016-11-21T06:32:58.313Z,10.28
2016-11-21T06:34:06.914Z,10.38
2016-11-21T06:35:15.843Z,10.65
2016-11-21T06:36:24.767Z,10.68
2016-11-21T06:37:34.756Z,10.83
2016-11-21T06:38:43.682Z,10.7
2016-11-21T06:39:52.289Z,10.65
2016-11-21T06:41:00.889Z,10.62
2016-11-21T06:42:09.502Z,10.54
2016-11-21T06:43:19.215Z,10.73
2016-11-21T06:44:27.839Z,10.7
2016-11-21T06:45:36.765Z,10.82
2016-11-21T06:46:45.689Z,10.82
2016-11-21T06:47:54.610Z,10.86
2016-11-21T06:49:04.164Z,10.9
2016-11-21T06:50:13.088Z,10.87
2016-11-21T06:51:21.694Z,11.37
2016-11-21T06:52:30.294Z,11.3
2016-11-21T06:53:39.533Z,11.46
2016-11-21T06:54:48.848Z,11.4
2016-11-21T06:55:58.101Z,11.19
2016-11-21T06:57:06.702Z,11.18
2016-11-21T06:58:15.629Z,11.2
2016-11-21T06:59:24.574Z,11.22
2016-11-21T07:00:33.851Z,11.12
2016-11-21T07:01:42.769Z,11.2
2016-11-21T07:02:51.699Z,11.23
2016-11-21T07:04:00.623Z,11.13
2016-11-21T07:05:10.133Z,11.22
2016-11-21T07:06:19.779Z,11.04
2016-11-21T07:07:28.711Z,11.16
2016-11-21T07:08:37.641Z,11.12
2016-11-21T07:09:46.241Z,11.12
2016-11-21T07:10:55.493Z,10.98
2016-11-21T07:12:04.448Z,11.01
2016-11-21T07:13:13.060Z,11.09
2016-11-21T07:14:22.305Z,10.75
2016-11-21T07:15:31.231Z,10.7
2016-11-21T07:16:39.832Z,10.98
2016-11-21T07:17:48.811Z,11.28
2016-11-21T07:18:57.435Z,11.09
2016-11-21T07:20:06.032Z,10.9
2016-11-21T07:21:14.639Z,10.73
2016-11-21T07:22:23.561Z,10.67
2016-11-21T07:23:32.611Z,10.73
2016-11-21T07:24:42.204Z,10.86
2016-11-21T07:25:50.829Z,10.72
2016-11-21T07:27:00.074Z,10.85
2016-11-21T07:28:08.999Z,10.87
2016-11-21T07:29:18.295Z,10.85
2016-11-21T07:30:27.218Z,10.85
2016-11-21T07:31:35.826Z,11.22
2016-11-21T07:32:45.073Z,10.9
2016-11-21T07:33:54.326Z,10.9
2016-11-21T07:35:03.312Z,10.97
2016-11-21T07:36:12.557Z,11.01
2016-11-21T07:37:21.158Z,10.85
2016-11-21T07:38:30.084Z,11.16
2016-11-21T07:39:39.330Z,11.12
2016-11-21T07:40:48.923Z,11.34
2016-11-21T07:41:57.523Z,11.2
2016-11-21T07:43:06.451Z,11.2
2016-11-21T07:44:15.366Z,11.28
2016-11-21T07:45:24.590Z,11.25
2016-11-21T07:46:33.529Z,11.31
2016-11-21T07:47:42.771Z,11.31
2016-11-21T07:48:52.011Z,11.37
2016-11-21T07:50:00.942Z,11.2
2016-11-21T07:51:09.850Z,11.37
2016-11-21T07:52:18.807Z,11.51
2016-11-21T07:53:28.086Z,11.49
2016-11-21T07:54:36.693Z,11.67
2016-11-21T07:55:45.614Z,11.84
2016-11-21T07:56:54.525Z,11.59
2016-11-21T07:58:03.785Z,11.62
2016-11-21T07:59:12.568Z,11.64
2016-11-21T08:00:21.155Z,11.85
2016-11-21T08:01:30.049Z,11.77
2016-11-21T08:02:38.951Z,11.55
2016-11-21T08:03:47.875Z,11.49
2016-11-21T08:04:56.453Z,11.61
2016-11-21T08:06:05.032Z,11.59
2016-11-21T08:07:13.617Z,11.62
2016-11-21T08:08:22.217Z,11.61
2016-11-21T08:09:31.465Z,11.87
2016-11-21T08:10:40.363Z,11.97
2016-11-21T08:11:49.904Z,11.95
2016-11-21T08:12:58.802Z,11.82
2016-11-21T08:14:07.408Z,11.96
2016-11-21T08:15:16.342Z,11.8
2016-11-21T08:16:25.238Z,11.91
2016-11-21T08:17:34.451Z,11.73
2016-11-21T08:18:43.349Z,11.96
2016-11-21T08:19:52.882Z,11.95
2016-11-21T08:21:02.182Z,12.08
2016-11-21T08:22:11.079Z,11.82
2016-11-21T08:23:19.658Z,12
2016-11-21T08:24:29.200Z,11.66
2016-11-21T08:25:37.785Z,11.99
2016-11-21T08:26:47.033Z,11.95
2016-11-21T08:27:56.245Z,12.05
2016-11-21T08:29:04.826Z,11.99
2016-11-21T08:30:13.719Z,12.32
2016-11-21T08:31:22.301Z,12.36
2016-11-21T08:32:31.553Z,12.43
2016-11-21T08:33:40.450Z,12.28
2016-11-21T08:34:49.347Z,12.03
2016-11-21T08:35:57.928Z,11.82
2016-11-21T08:37:06.508Z,11.69
2016-11-21T08:38:16.122Z,12
2016-11-21T08:39:25.049Z,12.33
2016-11-21T08:40:33.948Z,12.1
2016-11-21T08:41:42.528Z,12.29
2016-11-21T08:42:51.746Z,12.26
2016-11-21T08:44:00.991Z,12.1
2016-11-21T08:45:10.225Z,12.11
2016-11-21T08:46:19.119Z,11.99
2016-11-21T08:47:28.360Z,12.14
2016-11-21T08:48:37.284Z,12.11
2016-11-21T08:49:46.279Z,11.96
2016-11-21T08:50:55.231Z,11.99
2016-11-21T08:52:04.145Z,12.08
2016-11-21T08:53:13.036Z,12.21
2016-11-21T08:54:21.933Z,12
2016-11-21T08:55:30.814Z,12
2016-11-21T08:56:39.714Z,12.4
2016-11-21T08:57:48.926Z,12.43
2016-11-21T08:58:57.825Z,12.51
2016-11-21T09:00:07.093Z,12.35
2016-11-21T09:01:16.674Z,12.36
2016-11-21T09:02:25.574Z,12.66
2016-11-21T09:03:34.468Z,12.73
2016-11-21T09:04:43.373Z,13.05
2016-11-21T09:05:52.598Z,12.87
2016-11-21T09:07:01.542Z,12.96
2016-11-21T09:08:10.436Z,13.01
2016-11-21T09:09:19.652Z,12.71
2016-11-21T09:10:28.231Z,12.71
2016-11-21T09:11:37.132Z,12.66
2016-11-21T09:12:46.129Z,12.53
2016-11-21T09:13:55.353Z,12.66
2016-11-21T09:15:04.574Z,12.48
2016-11-21T09:16:13.472Z,12.93
2016-11-21T09:17:22.370Z,12.83
2016-11-21T09:18:31.047Z,12.72
2016-11-21T09:19:39.630Z,12.88
2016-11-21T09:20:49.172Z,12.81
2016-11-21T09:21:58.098Z,12.84
2016-11-21T09:23:06.998Z,12.51
2016-11-21T09:24:16.013Z,12.66
2016-11-21T09:25:24.593Z,12.87
2016-11-21T09:26:33.544Z,12.77
2016-11-21T09:27:42.761Z,12.83
2016-11-21T09:28:51.336Z,12.91
2016-11-21T09:30:00.263Z,13.06
2016-11-21T09:31:09.163Z,13.09
2016-11-21T09:32:17.745Z,12.87
2016-11-21T09:33:26.964Z,13.02
2016-11-21T09:34:35.866Z,12.93
2016-11-21T09:35:44.864Z,12.91
2016-11-21T09:36:53.444Z,13.27
2016-11-21T09:38:02.347Z,13.4
2016-11-21T09:39:11.247Z,13.38
2016-11-21T09:40:19.827Z,13.54
2016-11-21T09:41:28.459Z,13.55
2016-11-21T09:42:37.069Z,13.38
2016-11-21T09:43:45.962Z,13.38
2016-11-21T09:44:55.176Z,13.11
2016-11-21T09:46:04.395Z,13.57
2016-11-21T09:47:13.664Z,13.6
2016-11-21T09:48:22.253Z,13.3
2016-11-21T09:49:31.159Z,13.27
2016-11-21T09:50:40.374Z,13.32
2016-11-21T09:51:48.955Z,13.67
2016-11-21T09:52:57.899Z,13.71
2016-11-21T09:54:06.800Z,13.65
2016-11-21T09:55:15.705Z,13.4
2016-11-21T09:56:25.239Z,13.78
2016-11-21T09:57:34.459Z,13.79
2016-11-21T09:58:43.091Z,13.55
2016-11-21T09:59:52.308Z,13.57
2016-11-21T10:01:01.214Z,13.63
2016-11-21T10:02:10.425Z,13.49
2016-11-21T10:03:19.958Z,13.26
2016-11-21T10:04:28.957Z,13.16
2016-11-21T10:05:37.536Z,13.51
2016-11-21T10:06:46.441Z,13.68
2016-11-21T10:07:55.020Z,13.67
2016-11-21T10:09:03.616Z,13.75
2016-11-21T10:10:12.965Z,13.67
2016-11-21T10:11:21.548Z,13.68
2016-11-21T10:12:30.131Z,13.58
2016-11-21T10:13:39.348Z,13.54
2016-11-21T10:14:48.251Z,13.76
2016-11-21T10:15:57.210Z,13.72
2016-11-21T10:17:06.125Z,13.75
2016-11-21T10:18:14.709Z,13.94
2016-11-21T10:19:23.929Z,13.61
2016-11-21T10:20:33.151Z,13.54
2016-11-21T10:21:42.473Z,13.65
2016-11-21T10:22:51.699Z,13.82
2016-11-21T10:24:00.598Z,13.85
2016-11-21T10:25:09.498Z,14.11
2016-11-21T10:26:18.398Z,13.91
2016-11-21T10:27:27.645Z,13.63
2016-11-21T10:28:36.862Z,13.23
2016-11-21T10:29:45.763Z,13.67
2016-11-21T10:30:54.341Z,13.82
2016-11-21T10:32:02.927Z,13.9
2016-11-21T10:33:11.860Z,14.05
2016-11-21T10:34:20.442Z,13.83
2016-11-21T10:35:29.358Z,14.18
2016-11-21T10:36:38.576Z,13.88
2016-11-21T10:37:47.154Z,14.08
2016-11-21T10:38:56.398Z,14.23
2016-11-21T10:40:05.299Z,14.19
2016-11-21T10:41:13.880Z,14.22
2016-11-21T10:42:23.419Z,13.94
2016-11-21T10:43:31.997Z,14.19
2016-11-21T10:44:41.250Z,14.11
2016-11-21T10:45:50.155Z,13.83
2016-11-21T10:46:59.056Z,13.73
2016-11-21T10:48:08.277Z,13.79
2016-11-21T10:49:17.179Z,13.96
2016-11-21T10:50:26.112Z,13.97
2016-11-21T10:51:35.015Z,13.91
2016-11-21T10:52:44.241Z,13.72
2016-11-21T10:53:53.796Z,13.75
2016-11-21T10:55:02.702Z,14
2016-11-21T10:56:11.589Z,14.16
2016-11-21T10:57:20.177Z,14
2016-11-21T10:58:28.761Z,14.31
2016-11-21T10:59:37.363Z,14.15
2016-11-21T11:00:46.601Z,14.18
2016-11-21T11:01:55.655Z,14.08
2016-11-21T11:03:04.901Z,14.01
2016-11-21T11:04:13.484Z,14.03
2016-11-21T11:05:22.410Z,14
2016-11-21T11:06:31.316Z,14.05
2016-11-21T11:07:40.267Z,14.22
2016-11-21T11:08:49.165Z,14.37
2016-11-21T11:09:58.069Z,14.53
2016-11-21T11:11:06.984Z,14.58
2016-11-21T11:12:15.568Z,14.64
2016-11-21T11:13:24.566Z,14.23
2016-11-21T11:14:33.487Z,14.4
2016-11-21T11:15:42.071Z,14.46
2016-11-21T11:16:50.668Z,14.48
2016-11-21T11:17:59.586Z,14.45
2016-11-21T11:19:08.221Z,14.36
2016-11-21T11:20:17.188Z,14.37
2016-11-21T11:21:26.097Z,14.27
2016-11-21T11:22:35.328Z,14.23
2016-11-21T11:23:44.256Z,14.34
2016-11-21T11:24:54.247Z,14.23
2016-11-21T11:26:02.845Z,14.21
2016-11-21T11:27:12.059Z,14.3
2016-11-21T11:28:20.962Z,14.51
2016-11-21T11:29:29.872Z,14.48
2016-11-21T11:30:39.497Z,14.23
2016-11-21T11:31:48.085Z,14.09
2016-11-21T11:32:56.984Z,14.22
2016-11-21T11:34:06.201Z,14.21
2016-11-21T11:35:15.425Z,13.98
2016-11-21T11:36:24.802Z,14.12
2016-11-21T11:37:33.711Z,14.36
2016-11-21T11:38:42.622Z,14.22
2016-11-21T11:39:51.522Z,14.28
2016-11-21T11:41:00.428Z,14.52
2016-11-21T11:42:09.427Z,14.51
2016-11-21T11:43:18.012Z,14.36
2016-11-21T11:44:26.592Z,14.41
2016-11-21T11:45:35.819Z,14.19
2016-11-21T11:46:44.415Z,14.46
2016-11-21T11:47:53.044Z,14.36
2016-11-21T11:49:01.629Z,14.41
2016-11-21T11:50:10.530Z,14.61
2016-11-21T11:51:19.750Z,14.55
2016-11-21T11:52:28.648Z,14.53
2016-11-21T11:53:37.283Z,14.64
2016-11-21T11:54:46.711Z,14.52
2016-11-21T11:55:55.613Z,14.71
2016-11-21T11:57:04.969Z,14.44
2016-11-21T11:58:13.571Z,13.86
2016-11-21T11:59:22.944Z,14.12
2016-11-21T12:00:31.547Z,14.45
2016-11-21T12:01:40.512Z,14.26
2016-11-21T12:02:49.414Z,14.44
2016-11-21T12:03:58.338Z,14.22
2016-11-21T12:05:07.290Z,14.21
2016-11-21T12:06:15.886Z,14.23
2016-11-21T12:07:24.466Z,14.44
2016-11-21T12:08:33.051Z,14.59
2016-11-21T12:09:41.632Z,14.71
2016-11-21T12:10:50.836Z,14.48
2016-11-21T12:11:59.747Z,14.56
2016-11-21T12:13:08.964Z,14.59
2016-11-21T12:14:17.590Z,14.86
2016-11-21T12:15:26.499Z,14.7
2016-11-21T12:16:35.453Z,14.36
2016-11-21T12:17:44.670Z,14.05
2016-11-21T12:18:53.569Z,14.48
2016-11-21T12:20:02.787Z,14.61
2016-11-21T12:21:11.386Z,14.79
2016-11-21T12:22:20.703Z,14.48
2016-11-21T12:23:29.299Z,14.48
2016-11-21T12:24:37.886Z,14.44
2016-11-21T12:25:47.107Z,14.53
2016-11-21T12:26:56.012Z,14.71
2016-11-21T12:28:05.047Z,14.79
2016-11-21T12:29:13.672Z,14.92
2016-11-21T12:30:22.573Z,14.85
2016-11-21T12:31:31.474Z,14.89
2016-11-21T12:32:41.012Z,14.73
2016-11-21T12:33:49.896Z,14.79
2016-11-21T12:34:58.476Z,14.93
2016-11-21T12:36:07.378Z,14.44
2016-11-21T12:37:16.288Z,14.09
2016-11-21T12:38:24.871Z,14.48
2016-11-21T12:39:34.406Z,14.46
2016-11-21T12:40:43.941Z,14.59
2016-11-21T12:41:52.525Z,14.9
2016-11-21T12:43:01.741Z,15.04
2016-11-21T12:44:10.647Z,15.11
2016-11-21T12:45:19.603Z,15.11
2016-11-21T12:46:28.500Z,15.04
2016-11-21T12:47:37.722Z,14.82
2016-11-21T12:48:46.618Z,14.73
2016-11-21T12:49:55.203Z,14.71
2016-11-21T12:51:03.891Z,14.67
2016-11-21T12:52:12.474Z,14.87
2016-11-21T12:53:21.098Z,14.9
2016-11-21T12:54:29.742Z,14.82
2016-11-21T12:55:38.671Z,14.92
2016-11-21T12:56:48.196Z,14.93
2016-11-21T12:57:57.828Z,14.95
2016-11-21T12:59:06.407Z,14.61
2016-11-21T13:00:14.987Z,14.67
2016-11-21T13:01:23.883Z,14.52
2016-11-21T13:02:33.089Z,14.67
2016-11-21T13:03:41.667Z,14.58
2016-11-21T13:04:50.885Z,14.58
2016-11-21T13:05:59.464Z,14.61
2016-11-21T13:07:08.045Z,14.87
2016-11-21T13:08:17.587Z,14.64
2016-11-21T13:09:26.172Z,14.74
2016-11-21T13:10:35.075Z,14.9
2016-11-21T13:11:44.304Z,14.86
2016-11-21T13:12:53.201Z,14.95
2016-11-21T13:14:02.426Z,14.82
2016-11-21T13:15:11.004Z,14.61
2016-11-21T13:16:19.584Z,14.59
2016-11-21T13:17:28.490Z,14.63
2016-11-21T13:18:37.706Z,14.73
2016-11-21T13:19:47.590Z,14.71
2016-11-21T13:20:56.518Z,14.71
2016-11-21T13:22:05.428Z,14.74
2016-11-21T13:23:14.329Z,14.71
2016-11-21T13:24:23.553Z,14.61
2016-11-21T13:25:32.436Z,14.73
2016-11-21T13:26:41.343Z,14.69
2016-11-21T13:27:50.242Z,14.71
2016-11-21T13:28:59.143Z,14.66
2016-11-21T13:30:08.360Z,14.53
2016-11-21T13:31:17.978Z,14.61
2016-11-21T13:32:26.875Z,14.58
2016-11-21T13:33:35.830Z,14.64
2016-11-21T13:34:45.439Z,14.58
2016-11-21T13:35:54.804Z,14.58
2016-11-21T13:37:04.466Z,14.59
2016-11-21T13:38:13.700Z,14.53
2016-11-21T13:39:22.729Z,14.38
2016-11-21T13:40:32.074Z,14.37
2016-11-21T13:41:40.656Z,14.21
2016-11-21T13:42:50.224Z,14.26
2016-11-21T13:43:59.123Z,14.27
2016-11-21T13:45:08.026Z,14.41
2016-11-21T13:46:17.244Z,14.44
2016-11-21T13:47:26.140Z,14.22
2016-11-21T13:48:35.336Z,14.45
2016-11-21T13:49:44.241Z,14.23
2016-11-21T13:50:53.138Z,14.46
2016-11-21T13:52:02.032Z,14.61
2016-11-21T13:53:11.248Z,14.67
2016-11-21T13:54:20.549Z,14.79
2016-11-21T13:55:29.463Z,14.73
2016-11-21T13:56:38.394Z,14.82
2016-11-21T13:57:46.974Z,14.78
2016-11-21T13:58:56.510Z,14.49
2016-11-21T14:00:05.455Z,14.46
2016-11-21T14:01:14.669Z,14.46
2016-11-21T14:02:23.253Z,14.59
2016-11-21T14:03:31.832Z,14.87
2016-11-21T14:04:41.048Z,14.46
2016-11-21T14:05:49.983Z,14.63
2016-11-21T14:06:58.886Z,14.67
2016-11-21T14:08:07.799Z,14.41
2016-11-21T14:09:16.380Z,14.64
2016-11-21T14:10:24.958Z,14.4
2016-11-21T14:11:34.158Z,14.64
2016-11-21T14:12:42.761Z,14.77
2016-11-21T14:13:52.050Z,14.93
2016-11-21T14:15:01.358Z,14.73
2016-11-21T14:16:10.259Z,14.79
2016-11-21T14:17:19.258Z,14.9
2016-11-21T14:18:27.849Z,14.67
2016-11-21T14:19:37.066Z,14.63
2016-11-21T14:20:45.645Z,14.63
2016-11-21T14:21:54.225Z,14.79
2016-11-21T14:23:03.171Z,14.48
2016-11-21T14:24:12.069Z,14.4
2016-11-21T14:25:21.000Z,14.66
2016-11-21T14:26:29.901Z,14.41
2016-11-21T14:27:39.514Z,14.58
2016-11-21T14:28:48.545Z,14.34
2016-11-21T14:29:57.452Z,14.41
2016-11-21T14:31:06.031Z,14.41
2016-11-21T14:32:15.571Z,14.53
2016-11-21T14:33:24.793Z,14.56
2016-11-21T14:34:33.427Z,14.16
2016-11-21T14:35:42.006Z,14.3
2016-11-21T14:36:50.587Z,13.98
2016-11-21T14:37:59.170Z,14.01
2016-11-21T14:39:08.069Z,14.05
2016-11-21T14:40:17.656Z,14.03
2016-11-21T14:41:26.573Z,14.18
2016-11-21T14:42:35.484Z,14.05
2016-11-21T14:43:45.018Z,14.27
2016-11-21T14:44:53.594Z,14.04
2016-11-21T14:46:02.218Z,14.27
2016-11-21T14:47:10.804Z,14.34
2016-11-21T14:48:19.699Z,14.16
2016-11-21T14:49:28.918Z,14.05
2016-11-21T14:50:38.141Z,13.61
2016-11-21T14:51:46.768Z,13.79
2016-11-21T14:52:55.672Z,13.96
2016-11-21T14:54:04.569Z,14.08
2016-11-21T14:55:13.145Z,14.09
2016-11-21T14:56:22.363Z,14.04
2016-11-21T14:57:31.318Z,14.19
2016-11-21T14:58:40.222Z,14.22
2016-11-21T14:59:49.440Z,14.03
2016-11-21T15:00:58.657Z,13.78